Terminal Aerodrome Forecast
Issued by NWS Wilmington, OH

Current Version | Previous Version | Text Only | Print | Product List | Glossary On
Versions: 1 2 3 4 5 6 7 8 9 10 11 12 13 14 15 16 17 18 19 20 21 22
009
FTUS41 KILN 271133 AAA
TAFDAY
TAF AMD
KDAY 271133Z 2712/2806 19008KT P6SM OVC040
     FM271600 18010KT P6SM VCSH OVC025
     FM272300 15006KT P6SM OVC025
     FM280200 14005KT P6SM OVC035=

USA.gov is the U.S. government's official web portal to all federal, state and local government web resources and services.